Time;durP1;ratioP1;P1;durP2;ratioP2;P2;SDS_P1;SDS_P2;PMS_P1;PMS_P2;Temp;Humidity;BMP_temperature;BMP_pressure;BME280_temperature;BME280_humidity;BME280_pressure;Samples;Min_cycle;Max_cycle;Signal;HPM_P1;HPM_P2
2023/08/12 00:00:32;;;;;;;7.93;7.03;;;20.00;99.90;;;;;;6175058;23;20170;-68
2023/08/12 00:02:58;;;;;;;9.07;7.10;;;20.00;99.90;;;;;;6199993;23;20377;-68
2023/08/12 00:05:24;;;;;;;11.23;8.67;;;20.00;99.90;;;;;;6224139;23;20361;-69
2023/08/12 00:07:50;;;;;;;8.40;7.53;;;20.00;99.90;;;;;;6197027;23;20388;-68
2023/08/12 00:10:16;;;;;;;9.03;7.17;;;20.00;99.90;;;;;;6223975;23;20169;-68
2023/08/12 00:12:43;;;;;;;8.33;6.70;;;20.00;99.90;;;;;;6230816;23;20213;-71
2023/08/12 00:15:10;;;;;;;5.87;5.30;;;20.10;99.90;;;;;;6228167;23;20206;-68
2023/08/12 00:17:37;;;;;;;6.40;5.80;;;20.10;99.90;;;;;;6224924;23;20675;-67
2023/08/12 00:20:06;;;;;;;6.10;5.47;;;20.10;99.90;;;;;;6197521;23;20722;-68
2023/08/12 00:22:33;;;;;;;5.57;5.07;;;20.10;99.90;;;;;;6224375;23;20663;-69
2023/08/12 00:24:59;;;;;;;4.57;4.17;;;20.10;99.90;;;;;;6223625;23;20383;-67
2023/08/12 00:27:24;;;;;;;5.40;4.60;;;20.10;99.90;;;;;;6224085;23;20381;-68
2023/08/12 00:29:50;;;;;;;5.47;5.00;;;20.10;99.90;;;;;;6224912;23;20229;-67
2023/08/12 00:32:15;;;;;;;4.40;4.00;;;20.10;99.90;;;;;;6224232;23;20500;-69
2023/08/12 00:34:41;;;;;;;4.00;3.70;;;20.10;99.90;;;;;;6224974;23;20133;-67
2023/08/12 00:37:06;;;;;;;3.33;3.03;;;20.10;99.90;;;;;;6224810;23;20415;-67
2023/08/12 00:39:32;;;;;;;3.53;2.80;;;20.00;99.90;;;;;;6196637;23;20220;-67
2023/08/12 00:41:58;;;;;;;2.73;2.53;;;20.00;99.90;;;;;;6197703;23;20165;-68
2023/08/12 00:44:23;;;;;;;2.20;2.00;;;20.00;99.90;;;;;;6198031;23;20146;-67
2023/08/12 00:46:50;;;;;;;2.27;2.07;;;20.00;99.90;;;;;;6172725;23;20146;-68
2023/08/12 00:49:16;;;;;;;1.83;1.73;;;20.00;99.90;;;;;;6222958;23;20142;-69
2023/08/12 00:51:43;;;;;;;1.53;1.40;;;20.00;99.90;;;;;;6224684;23;20436;-67
2023/08/12 00:54:13;;;;;;;1.50;1.40;;;20.00;99.90;;;;;;6199881;23;20154;-69
2023/08/12 00:56:39;;;;;;;1.40;1.30;;;20.00;99.90;;;;;;6198999;23;20377;-68
2023/08/12 00:59:07;;;;;;;2.00;1.83;;;20.00;99.90;;;;;;6224212;23;20408;-68
2023/08/12 01:01:33;;;;;;;1.67;1.40;;;20.00;99.90;;;;;;6223279;23;20221;-66
2023/08/12 01:03:59;;;;;;;2.00;1.80;;;20.00;99.90;;;;;;6223398;23;20357;-68
2023/08/12 01:06:25;;;;;;;1.27;1.17;;;20.00;99.90;;;;;;6196772;23;20465;-67
2023/08/12 01:08:50;;;;;;;1.50;1.40;;;20.00;99.90;;;;;;6223095;23;20130;-67
2023/08/12 01:11:55;;;;;;;1.27;1.17;;;19.90;99.90;;;;;;6222864;23;20633;-66
2023/08/12 01:14:45;;;;;;;1.30;1.07;;;19.90;99.90;;;;;;6176122;23;20631;-67
2023/08/12 01:17:14;;;;;;;1.97;1.63;;;19.90;99.90;;;;;;6196566;23;20369;-66
2023/08/12 01:19:40;;;;;;;1.70;1.20;;;19.90;99.90;;;;;;6222505;23;20738;-66
2023/08/12 01:22:09;;;;;;;3.80;2.90;;;19.90;99.90;;;;;;6221373;23;20365;-66
2023/08/12 01:24:36;;;;;;;3.00;2.70;;;19.90;99.90;;;;;;6223467;23;20801;-67
2023/08/12 01:27:04;;;;;;;2.30;2.10;;;19.90;99.90;;;;;;6195703;23;20348;-66
2023/08/12 01:29:30;;;;;;;2.50;2.30;;;19.90;99.90;;;;;;6224154;23;20425;-65
2023/08/12 01:32:21;;;;;;;2.20;2.00;;;19.90;99.90;;;;;;6223667;23;20397;-67
2023/08/12 01:34:54;;;;;;;3.10;2.77;;;19.90;99.90;;;;;;6160740;23;20373;-66
2023/08/12 01:37:26;;;;;;;3.87;3.30;;;19.80;99.90;;;;;;6224111;23;20711;-67
2023/08/12 01:39:54;;;;;;;5.03;4.53;;;19.80;99.90;;;;;;6197111;23;20487;-67
2023/08/12 01:42:20;;;;;;;5.67;4.80;;;19.80;99.90;;;;;;6195031;23;20861;-67
2023/08/12 01:44:46;;;;;;;5.13;4.60;;;19.80;99.90;;;;;;6222597;23;20354;-66
2023/08/12 01:47:13;;;;;;;6.30;5.10;;;19.80;99.90;;;;;;6222656;23;20404;-66
2023/08/12 01:49:38;;;;;;;6.20;5.37;;;19.70;99.90;;;;;;6195092;23;20396;-65
2023/08/12 01:52:04;;;;;;;9.23;6.77;;;19.70;99.90;;;;;;6221712;23;20463;-66
2023/08/12 01:54:33;;;;;;;11.23;7.93;;;19.70;99.90;;;;;;6222523;23;20134;-65
2023/08/12 01:57:05;;;;;;;8.80;6.80;;;19.70;99.90;;;;;;6222427;23;20519;-67
2023/08/12 01:59:31;;;;;;;8.80;6.10;;;19.80;99.90;;;;;;6196485;23;20437;-67
2023/08/12 02:01:57;;;;;;;5.83;5.20;;;19.80;99.90;;;;;;6223950;23;20349;-68
2023/08/12 02:04:25;;;;;;;8.30;5.83;;;19.80;99.90;;;;;;6223796;23;20353;-68
2023/08/12 02:06:51;;;;;;;8.93;6.80;;;19.80;99.90;;;;;;6223542;23;20352;-66
2023/08/12 02:09:19;;;;;;;5.63;4.90;;;19.80;99.90;;;;;;6197058;23;20607;-65
2023/08/12 02:11:45;;;;;;;5.70;4.97;;;19.80;99.90;;;;;;6224156;23;20580;-67
2023/08/12 02:14:10;;;;;;;5.03;4.43;;;19.80;99.90;;;;;;6224433;23;20376;-67
2023/08/12 02:16:36;;;;;;;4.33;3.93;;;19.70;99.90;;;;;;6197138;23;20146;-66
2023/08/12 02:19:02;;;;;;;5.07;4.40;;;19.70;99.90;;;;;;6171626;23;20685;-67
2023/08/12 02:21:27;;;;;;;4.40;3.63;;;19.70;99.90;;;;;;6222225;23;20154;-67
2023/08/12 02:23:53;;;;;;;3.97;3.57;;;19.80;99.90;;;;;;6197079;23;20153;-64
2023/08/12 02:26:19;;;;;;;4.10;3.20;;;19.80;99.90;;;;;;6220743;23;20492;-66
2023/08/12 02:28:47;;;;;;;3.50;3.03;;;19.70;99.90;;;;;;6222999;23;20448;-66
2023/08/12 02:31:16;;;;;;;4.60;3.43;;;19.80;99.90;;;;;;6196606;23;20397;-67
2023/08/12 02:33:42;;;;;;;5.20;3.83;;;19.80;99.90;;;;;;6222874;23;20372;-66
2023/08/12 02:36:07;;;;;;;12.40;6.57;;;19.80;99.90;;;;;;6197008;23;20463;-66
2023/08/12 02:38:33;;;;;;;6.03;4.70;;;19.80;99.90;;;;;;6222867;23;20741;-67
2023/08/12 02:40:59;;;;;;;5.80;3.80;;;19.80;99.90;;;;;;6224462;23;20158;-65
2023/08/12 02:43:24;;;;;;;3.20;2.90;;;19.80;99.90;;;;;;6221448;23;20141;-67
2023/08/12 02:45:50;;;;;;;3.50;3.13;;;19.80;99.90;;;;;;6223896;23;20161;-66
2023/08/12 02:48:15;;;;;;;3.40;2.73;;;19.80;99.90;;;;;;6221669;23;20161;-67
2023/08/12 02:50:41;;;;;;;3.13;2.60;;;19.80;99.90;;;;;;6221700;23;20190;-67
2023/08/12 02:53:08;;;;;;;2.30;2.07;;;19.80;99.90;;;;;;6195152;23;20154;-67
2023/08/12 02:55:34;;;;;;;2.13;1.93;;;19.70;99.90;;;;;;6222513;23;20194;-66
2023/08/12 02:58:00;;;;;;;3.10;2.40;;;19.70;99.90;;;;;;6221659;23;20396;-66
2023/08/12 03:00:27;;;;;;;2.80;2.27;;;19.70;99.90;;;;;;6196564;23;20428;-66
2023/08/12 03:02:53;;;;;;;3.47;2.70;;;19.70;99.90;;;;;;6221921;23;20767;-65
2023/08/12 03:05:18;;;;;;;3.00;2.70;;;19.70;99.90;;;;;;6222177;23;20774;-66
2023/08/12 03:07:44;;;;;;;2.83;2.50;;;19.70;99.90;;;;;;6223552;23;20459;-65
2023/08/12 03:10:11;;;;;;;3.00;2.17;;;19.70;99.90;;;;;;6219550;23;20174;-66
2023/08/12 03:12:37;;;;;;;2.97;2.37;;;19.60;99.90;;;;;;6195447;23;20678;-65
2023/08/12 03:15:05;;;;;;;2.57;2.00;;;19.60;99.90;;;;;;6195877;23;20451;-66
2023/08/12 03:17:31;;;;;;;2.23;2.03;;;19.60;99.90;;;;;;6194797;23;20628;-64
2023/08/12 03:19:59;;;;;;;2.20;2.00;;;19.60;99.90;;;;;;6221537;23;20385;-65
2023/08/12 03:22:27;;;;;;;1.90;1.80;;;19.60;99.90;;;;;;6203078;23;20144;-65
2023/08/12 03:24:53;;;;;;;2.47;2.27;;;19.60;99.90;;;;;;6203525;23;20691;-66
2023/08/12 03:27:19;;;;;;;3.87;3.10;;;19.60;99.90;;;;;;6204236;23;20481;-66
2023/08/12 03:29:46;;;;;;;13.57;7.60;;;19.60;99.90;;;;;;6203413;23;20455;-66
2023/08/12 03:32:13;;;;;;;7.80;5.73;;;19.60;99.90;;;;;;6204274;23;20385;-65
2023/08/12 03:34:39;;;;;;;6.50;5.13;;;19.50;99.90;;;;;;6202056;23;20385;-67
2023/08/12 03:37:05;;;;;;;5.33;4.70;;;19.50;99.90;;;;;;6226883;23;20388;-67
2023/08/12 03:39:33;;;;;;;7.97;5.80;;;19.50;99.90;;;;;;6173597;23;20425;-67
2023/08/12 03:42:01;;;;;;;10.17;7.40;;;19.50;99.90;;;;;;6198261;23;20365;-66
2023/08/12 03:44:26;;;;;;;15.10;11.97;;;19.50;99.90;;;;;;6199804;23;20460;-66
2023/08/12 03:46:52;;;;;;;16.30;10.93;;;19.40;99.90;;;;;;6225403;23;20142;-70
2023/08/12 03:49:18;;;;;;;17.90;11.70;;;19.40;99.90;;;;;;6196897;23;20142;-66
2023/08/12 03:51:43;;;;;;;12.63;9.67;;;19.40;99.90;;;;;;6198613;23;20461;-67
2023/08/12 03:54:09;;;;;;;15.20;10.90;;;19.40;99.90;;;;;;6196796;23;20151;-67
2023/08/12 03:56:34;;;;;;;14.33;10.47;;;19.30;99.90;;;;;;6196942;23;20438;-67
2023/08/12 03:59:02;;;;;;;14.70;10.53;;;19.30;99.90;;;;;;6193728;23;20178;-68
2023/08/12 04:01:28;;;;;;;10.60;9.50;;;19.20;99.90;;;;;;6195954;23;20857;-68
2023/08/12 04:03:55;;;;;;;9.67;8.10;;;19.20;99.90;;;;;;6226413;23;20814;-68
2023/08/12 04:06:20;;;;;;;11.43;8.30;;;19.20;99.90;;;;;;6204339;23;20405;-67
2023/08/12 04:08:46;;;;;;;12.40;8.40;;;19.10;99.90;;;;;;6226284;23;20130;-66
2023/08/12 04:11:12;;;;;;;7.50;6.27;;;19.10;99.90;;;;;;6147245;23;20184;-65
2023/08/12 04:13:39;;;;;;;7.23;6.47;;;19.00;99.90;;;;;;6221446;23;20604;-65
2023/08/12 04:16:05;;;;;;;8.03;6.37;;;19.00;99.90;;;;;;6222614;23;20427;-67
2023/08/12 04:18:31;;;;;;;6.77;5.97;;;19.00;99.90;;;;;;6222409;23;20235;-66
2023/08/12 04:20:56;;;;;;;9.73;6.73;;;18.90;99.90;;;;;;6222148;23;20172;-66
2023/08/12 04:23:22;;;;;;;8.33;7.53;;;19.00;99.90;;;;;;6222060;23;20150;-67
2023/08/12 04:25:48;;;;;;;8.17;6.43;;;19.00;99.90;;;;;;6194454;23;20391;-66
2023/08/12 04:28:15;;;;;;;10.37;8.33;;;19.00;99.90;;;;;;6218750;23;20153;-66
2023/08/12 04:30:50;;;;;;;8.77;7.40;;;19.00;99.90;;;;;;6219788;23;20435;-66
2023/08/12 04:33:16;;;;;;;8.20;6.93;;;19.00;99.90;;;;;;6220032;23;20360;-65
2023/08/12 04:35:42;;;;;;;5.57;5.00;;;19.00;99.90;;;;;;6219648;23;20443;-68
2023/08/12 04:38:08;;;;;;;5.73;5.00;;;19.00;99.90;;;;;;6218656;23;20188;-66
2023/08/12 04:40:38;;;;;;;5.50;4.83;;;19.00;99.90;;;;;;6193152;23;20639;-66
2023/08/12 04:43:03;;;;;;;5.90;4.90;;;19.00;99.90;;;;;;6193687;23;20388;-65
2023/08/12 04:45:29;;;;;;;6.17;4.90;;;19.10;99.90;;;;;;6194365;23;20449;-66
2023/08/12 04:47:57;;;;;;;6.27;4.73;;;19.10;99.90;;;;;;6193175;23;20156;-66
2023/08/12 04:50:23;;;;;;;5.03;4.53;;;19.20;99.90;;;;;;6168681;23;20479;-66
2023/08/12 04:52:49;;;;;;;5.37;4.83;;;19.30;99.90;;;;;;6193569;23;20380;-66
2023/08/12 04:55:18;;;;;;;7.17;5.37;;;19.30;99.90;;;;;;6193929;23;20156;-66
2023/08/12 04:57:44;;;;;;;6.80;5.70;;;19.40;99.90;;;;;;6219604;23;20400;-66
2023/08/12 05:00:10;;;;;;;7.03;5.00;;;19.40;99.90;;;;;;6194802;23;20161;-66
2023/08/12 05:02:36;;;;;;;5.33;4.83;;;19.40;99.90;;;;;;6193467;23;20150;-67
2023/08/12 05:05:02;;;;;;;5.77;5.17;;;19.50;99.90;;;;;;6194243;23;20740;-66
2023/08/12 05:07:31;;;;;;;8.10;6.00;;;19.50;99.90;;;;;;6193897;23;20451;-66
2023/08/12 05:09:57;;;;;;;7.63;6.70;;;19.50;99.90;;;;;;6219473;23;20381;-66
2023/08/12 05:12:23;;;;;;;9.73;6.93;;;19.50;99.90;;;;;;6222143;23;20373;-66
2023/08/12 05:14:48;;;;;;;6.67;5.80;;;19.50;99.90;;;;;;6197383;23;20536;-64
2023/08/12 05:17:15;;;;;;;5.90;5.20;;;19.50;99.90;;;;;;6194377;23;20176;-67
2023/08/12 05:19:41;;;;;;;7.10;5.63;;;19.60;99.90;;;;;;6219734;23;20502;-66
2023/08/12 05:22:07;;;;;;;7.23;6.17;;;19.60;99.90;;;;;;6169469;23;20370;-67
2023/08/12 05:24:32;;;;;;;6.57;5.90;;;19.60;99.90;;;;;;6220966;23;20134;-65
2023/08/12 05:26:58;;;;;;;6.73;5.30;;;19.60;99.90;;;;;;6224092;23;20188;-66
2023/08/12 05:29:24;;;;;;;6.27;5.17;;;19.60;99.90;;;;;;6221504;23;20506;-66
2023/08/12 05:31:49;;;;;;;5.97;5.37;;;19.60;99.90;;;;;;6221313;23;20152;-67
2023/08/12 05:34:15;;;;;;;7.97;6.17;;;19.60;99.90;;;;;;6222775;23;20138;-67
2023/08/12 05:36:41;;;;;;;8.47;6.10;;;19.70;99.90;;;;;;6222385;23;20169;-67
2023/08/12 05:39:06;;;;;;;10.77;8.10;;;19.70;99.90;;;;;;6221177;23;20162;-67
2023/08/12 05:41:32;;;;;;;9.43;7.63;;;19.70;99.90;;;;;;6221436;23;20415;-67
2023/08/12 05:43:57;;;;;;;9.53;8.30;;;19.70;99.90;;;;;;6226363;23;20145;-69
2023/08/12 05:46:23;;;;;;;8.73;7.80;;;19.60;99.90;;;;;;6197515;23;20126;-69
2023/08/12 05:48:49;;;;;;;7.40;6.40;;;19.60;99.90;;;;;;6220666;23;20150;-67
2023/08/12 05:51:14;;;;;;;6.93;6.23;;;19.50;99.90;;;;;;6221437;23;20186;-67
2023/08/12 05:53:40;;;;;;;7.03;5.93;;;19.50;99.90;;;;;;6222094;23;20407;-65
2023/08/12 05:56:05;;;;;;;6.50;5.90;;;19.50;99.90;;;;;;6221508;23;20230;-67
2023/08/12 05:58:31;;;;;;;6.23;5.63;;;19.60;99.90;;;;;;6221341;23;20174;-67
2023/08/12 06:00:57;;;;;;;5.80;5.17;;;19.50;99.90;;;;;;6223049;23;20154;-70
2023/08/12 06:03:22;;;;;;;5.13;4.63;;;19.60;99.90;;;;;;6197997;23;20157;-65
2023/08/12 06:05:49;;;;;;;5.07;4.57;;;19.50;99.90;;;;;;6224329;23;20491;-66
2023/08/12 06:08:15;;;;;;;4.53;4.13;;;19.40;99.90;;;;;;6222977;23;20139;-66
2023/08/12 06:10:40;;;;;;;3.80;3.50;;;19.40;99.90;;;;;;6221784;23;20851;-68
2023/08/12 06:13:06;;;;;;;4.50;4.10;;;19.40;99.90;;;;;;6223356;23;20425;-66
2023/08/12 06:15:33;;;;;;;3.50;3.20;;;19.50;99.90;;;;;;6224262;23;20138;-66
2023/08/12 06:17:59;;;;;;;3.97;3.57;;;19.50;99.90;;;;;;6223386;23;20169;-70
2023/08/12 06:20:25;;;;;;;3.40;3.10;;;19.50;99.90;;;;;;6222065;23;20385;-66
2023/08/12 06:22:51;;;;;;;3.90;3.60;;;19.40;99.90;;;;;;6224628;23;20424;-68
2023/08/12 06:25:17;;;;;;;4.40;4.00;;;19.40;99.90;;;;;;6224070;23;20135;-66
2023/08/12 06:27:45;;;;;;;4.90;4.40;;;19.30;99.90;;;;;;6173005;23;20369;-71
2023/08/12 06:30:12;;;;;;;4.77;4.10;;;19.30;99.90;;;;;;6198912;23;20408;-67
2023/08/12 06:32:38;;;;;;;3.60;3.30;;;19.40;99.90;;;;;;6225045;23;20361;-66
2023/08/12 06:35:04;;;;;;;4.83;4.33;;;19.30;99.90;;;;;;6173062;23;20786;-67
2023/08/12 06:37:29;;;;;;;4.47;4.07;;;19.20;99.90;;;;;;6225067;23;20213;-67
2023/08/12 06:39:56;;;;;;;3.50;3.20;;;19.20;99.90;;;;;;6224600;23;20389;-68
2023/08/12 06:42:22;;;;;;;3.73;3.43;;;19.20;99.90;;;;;;6225194;23;20206;-68
2023/08/12 06:44:55;;;;;;;3.43;3.13;;;19.30;99.90;;;;;;6226171;23;20820;-70
2023/08/12 06:47:21;;;;;;;3.33;2.90;;;19.30;99.90;;;;;;6225724;23;20365;-66
2023/08/12 06:49:46;;;;;;;3.80;3.50;;;19.30;99.90;;;;;;6225751;23;20734;-68
2023/08/12 06:52:12;;;;;;;3.53;3.23;;;19.40;99.90;;;;;;6223748;23;20141;-69
2023/08/12 06:54:37;;;;;;;3.20;2.67;;;19.50;99.90;;;;;;6225626;23;20186;-68
2023/08/12 06:57:03;;;;;;;2.60;2.40;;;19.70;99.90;;;;;;6225103;23;20130;-67
2023/08/12 06:59:29;;;;;;;2.60;2.40;;;19.80;99.90;;;;;;6224955;23;20200;-67
2023/08/12 07:01:55;;;;;;;2.87;2.53;;;19.90;99.90;;;;;;6198854;23;20137;-70
2023/08/12 07:04:20;;;;;;;2.87;2.67;;;20.10;99.90;;;;;;6225701;23;20135;-66
2023/08/12 07:06:46;;;;;;;3.20;2.93;;;20.10;99.90;;;;;;6227276;23;20388;-68
2023/08/12 07:09:12;;;;;;;3.40;3.10;;;20.20;99.90;;;;;;6199142;23;20138;-69
2023/08/12 07:11:38;;;;;;;3.40;3.10;;;20.20;99.90;;;;;;6225042;23;20161;-69
2023/08/12 07:14:04;;;;;;;3.13;2.93;;;20.10;99.90;;;;;;6198550;23;20589;-66
2023/08/12 07:16:30;;;;;;;4.10;3.80;;;20.10;99.90;;;;;;6198686;23;20373;-67
2023/08/12 07:18:55;;;;;;;4.73;4.27;;;19.80;99.90;;;;;;6226998;23;20420;-69
2023/08/12 07:21:21;;;;;;;4.67;4.27;;;19.90;99.90;;;;;;6227250;23;20193;-69
2023/08/12 07:23:46;;;;;;;4.47;4.07;;;19.80;99.90;;;;;;6230714;23;20130;-68
2023/08/12 07:26:12;;;;;;;5.60;5.00;;;19.90;99.90;;;;;;6228210;23;20138;-69
2023/08/12 07:28:38;;;;;;;5.60;5.10;;;20.10;99.90;;;;;;6229136;23;20197;-67
2023/08/12 07:31:03;;;;;;;4.13;3.83;;;20.10;99.90;;;;;;6228339;23;20166;-69
2023/08/12 07:33:29;;;;;;;4.00;3.70;;;20.30;99.90;;;;;;6226888;23;20157;-70
2023/08/12 07:35:54;;;;;;;3.90;3.60;;;20.30;99.90;;;;;;6226220;23;20145;-69
2023/08/12 07:38:20;;;;;;;4.00;3.10;;;20.30;99.90;;;;;;6227500;23;20273;-66
2023/08/12 07:40:46;;;;;;;5.10;2.90;;;20.20;99.90;;;;;;6226707;23;20162;-67
2023/08/12 07:43:11;;;;;;;3.20;2.90;;;20.30;99.90;;;;;;6202464;23;20169;-69
2023/08/12 07:45:37;;;;;;;3.73;3.30;;;20.50;99.90;;;;;;6202325;23;20134;-68
2023/08/12 07:48:03;;;;;;;2.40;2.13;;;20.50;99.90;;;;;;6226665;23;20433;-66
2023/08/12 07:50:29;;;;;;;3.30;3.10;;;20.60;99.90;;;;;;6224988;23;20311;-69
2023/08/12 07:52:56;;;;;;;2.83;2.63;;;20.60;99.90;;;;;;6225706;23;20372;-69
2023/08/12 07:55:22;;;;;;;4.37;2.70;;;20.70;99.90;;;;;;6226531;23;20447;-69
2023/08/12 07:57:48;;;;;;;3.23;2.93;;;20.90;99.90;;;;;;6225724;23;20630;-66
2023/08/12 08:00:13;;;;;;;3.60;3.30;;;20.90;99.90;;;;;;6225712;23;20416;-67
2023/08/12 08:02:39;;;;;;;3.30;3.00;;;21.20;99.90;;;;;;6226723;23;20577;-68
2023/08/12 08:05:05;;;;;;;4.50;3.60;;;21.30;99.90;;;;;;6153171;23;20144;-71
2023/08/12 08:07:31;;;;;;;4.03;3.63;;;21.40;99.90;;;;;;6203442;23;20176;-66
2023/08/12 08:09:58;;;;;;;3.53;3.23;;;21.10;99.90;;;;;;6230541;23;20389;-68
2023/08/12 08:12:24;;;;;;;3.17;2.90;;;20.90;99.90;;;;;;6235175;23;20388;-67
2023/08/12 08:14:49;;;;;;;5.07;4.27;;;20.90;99.90;;;;;;6227581;23;20367;-70
2023/08/12 08:17:15;;;;;;;5.73;4.30;;;20.80;99.90;;;;;;6203520;23;20134;-69
2023/08/12 08:19:42;;;;;;;5.33;4.83;;;20.90;99.90;;;;;;6234488;23;20170;-72
2023/08/12 08:22:08;;;;;;;4.90;4.50;;;21.00;99.90;;;;;;6203598;23;20527;-69
2023/08/12 08:24:34;;;;;;;5.00;4.60;;;21.00;99.90;;;;;;6204021;23;20357;-72
2023/08/12 08:27:00;;;;;;;5.67;4.97;;;20.90;99.90;;;;;;6180108;23;20149;-71
2023/08/12 08:29:25;;;;;;;6.67;6.07;;;21.00;99.90;;;;;;6227703;23;20373;-68
2023/08/12 08:31:51;;;;;;;7.43;6.40;;;21.10;99.90;;;;;;6225523;23;20213;-69
2023/08/12 08:34:17;;;;;;;5.37;4.90;;;21.00;99.90;;;;;;6201423;23;20158;-69
2023/08/12 08:36:42;;;;;;;6.00;5.50;;;21.00;99.90;;;;;;6228023;23;20499;-70
2023/08/12 08:39:08;;;;;;;5.77;5.30;;;21.00;99.90;;;;;;6228404;23;20208;-69
2023/08/12 08:41:38;;;;;;;5.17;4.77;;;21.10;99.90;;;;;;6225265;23;20162;-68
2023/08/12 08:44:07;;;;;;;5.37;4.87;;;21.00;99.90;;;;;;6200469;23;20500;-71
2023/08/12 08:46:33;;;;;;;4.80;4.40;;;20.90;99.90;;;;;;6227930;23;20754;-71
2023/08/12 08:49:00;;;;;;;5.27;4.80;;;20.90;99.90;;;;;;6227410;23;20368;-70
2023/08/12 08:51:27;;;;;;;5.03;4.63;;;20.70;99.90;;;;;;6228238;23;20212;-69
2023/08/12 08:53:55;;;;;;;7.23;5.30;;;20.80;99.90;;;;;;6233318;23;20362;-71
2023/08/12 08:56:21;;;;;;;5.20;4.80;;;20.90;99.90;;;;;;6233787;23;20448;-71
2023/08/12 08:58:47;;;;;;;6.77;6.17;;;21.10;99.90;;;;;;6232746;23;20401;-69
2023/08/12 09:01:15;;;;;;;6.07;5.57;;;21.00;99.90;;;;;;6235137;23;20411;-71
2023/08/12 09:03:42;;;;;;;7.30;6.07;;;21.10;99.90;;;;;;6208503;23;20129;-71
2023/08/12 09:06:08;;;;;;;6.80;6.20;;;21.20;99.90;;;;;;6208610;23;20423;-68
2023/08/12 09:08:35;;;;;;;7.20;6.60;;;21.40;99.90;;;;;;6235192;23;20404;-71
2023/08/12 09:11:03;;;;;;;6.67;6.17;;;21.50;99.90;;;;;;6206979;23;20393;-72
2023/08/12 09:13:29;;;;;;;6.80;5.67;;;21.80;99.90;;;;;;6234178;23;20372;-70
2023/08/12 09:15:56;;;;;;;4.60;4.30;;;21.80;99.90;;;;;;6236640;23;20365;-70
2023/08/12 09:18:24;;;;;;;4.50;4.10;;;21.70;99.90;;;;;;6233443;23;20172;-73
2023/08/12 09:20:51;;;;;;;4.80;4.13;;;21.90;99.90;;;;;;6118831;23;20400;-71
2023/08/12 09:23:18;;;;;;;4.83;4.43;;;22.00;99.90;;;;;;6143454;23;20371;-72
2023/08/12 09:25:44;;;;;;;9.00;6.23;;;22.30;99.90;;;;;;6114354;23;20386;-70
2023/08/12 09:28:13;;;;;;;4.90;4.50;;;22.40;99.90;;;;;;6138198;23;20459;-72
2023/08/12 09:30:39;;;;;;;5.30;4.90;;;22.80;99.90;;;;;;6136503;23;20394;-69
2023/08/12 09:33:07;;;;;;;4.83;4.30;;;23.00;99.90;;;;;;6135954;23;20451;-70
2023/08/12 09:35:37;;;;;;;4.20;3.90;;;23.30;99.90;;;;;;6115723;23;20149;-72
2023/08/12 09:38:05;;;;;;;3.70;3.40;;;23.70;99.90;;;;;;6141737;23;20435;-70
2023/08/12 09:40:35;;;;;;;3.57;3.27;;;24.30;99.90;;;;;;6143304;23;20426;-72
2023/08/12 09:43:01;;;;;;;4.90;3.00;;;24.70;99.90;;;;;;6144939;23;20439;-71
2023/08/12 09:45:27;;;;;;;3.33;3.03;;;25.10;99.90;;;;;;6145320;23;20356;-72
2023/08/12 09:47:54;;;;;;;3.80;3.20;;;25.50;99.90;;;;;;6121296;23;20390;-73
2023/08/12 09:50:25;;;;;;;3.17;2.90;;;25.80;99.90;;;;;;6146501;23;20565;-71
2023/08/12 09:52:51;;;;;;;3.73;3.43;;;26.30;99.90;;;;;;6204131;23;20389;-72
2023/08/12 09:55:19;;;;;;;3.33;3.03;;;26.40;99.90;;;;;;6212034;23;20371;-71
2023/08/12 09:57:49;;;;;;;3.47;2.93;;;26.60;99.90;;;;;;6238115;23;20357;-71
2023/08/12 10:00:19;;;;;;;2.83;2.60;;;26.50;99.90;;;;;;6234252;23;20449;-72
2023/08/12 10:02:51;;;;;;;2.70;2.50;;;26.40;99.90;;;;;;6209789;23;20364;-71
2023/08/12 10:05:27;;;;;;;2.83;2.63;;;26.20;99.90;;;;;;6187832;23;20365;-71
2023/08/12 10:07:54;;;;;;;3.63;2.70;;;26.00;99.90;;;;;;6235501;23;20775;-71
2023/08/12 10:10:24;;;;;;;3.17;2.87;;;25.90;99.90;;;;;;6207047;23;20389;-73
2023/08/12 10:12:51;;;;;;;3.27;2.97;;;25.70;99.90;;;;;;6210830;23;20413;-72
2023/08/12 10:15:17;;;;;;;2.60;2.40;;;25.60;99.90;;;;;;6236979;23;20427;-70
2023/08/12 10:17:44;;;;;;;4.30;2.60;;;25.30;99.90;;;;;;6183224;23;20365;-69
2023/08/12 10:20:14;;;;;;;3.50;3.07;;;25.00;99.90;;;;;;6207900;23;20396;-68
2023/08/12 10:22:42;;;;;;;2.80;2.60;;;24.70;99.90;;;;;;6235700;23;20372;-71
2023/08/12 10:25:11;;;;;;;6.60;3.70;;;24.50;99.90;;;;;;6234010;23;20359;-70
2023/08/12 10:27:37;;;;;;;4.00;3.40;;;24.30;99.90;;;;;;6232766;23;20447;-72
2023/08/12 10:30:07;;;;;;;2.80;2.50;;;24.00;99.90;;;;;;6235977;23;20415;-72
2023/08/12 10:32:33;;;;;;;3.57;3.27;;;24.10;99.90;;;;;;6209317;23;20361;-71
2023/08/12 10:35:01;;;;;;;4.57;4.03;;;24.40;99.90;;;;;;6208207;23;20372;-71
2023/08/12 10:37:32;;;;;;;2.60;2.40;;;24.70;99.90;;;;;;6206515;23;20373;-73
2023/08/12 10:39:58;;;;;;;2.20;2.00;;;24.90;99.90;;;;;;6209347;23;20392;-71
2023/08/12 10:42:43;;;;;;;2.70;2.50;;;25.00;99.90;;;;;;6234941;23;20694;-71
2023/08/12 10:45:12;;;;;;;3.00;2.30;;;25.00;99.90;;;;;;6231463;23;20153;-73
2023/08/12 10:47:48;;;;;;;3.20;2.17;;;25.00;99.90;;;;;;6208491;23;20348;-72
2023/08/12 10:50:24;;;;;;;2.90;2.60;;;24.90;99.90;;;;;;6233846;23;20636;-71
2023/08/12 10:52:54;;;;;;;2.53;2.00;;;24.80;99.90;;;;;;6232380;23;20420;-71
2023/08/12 10:55:22;;;;;;;3.67;2.23;;;24.70;99.90;;;;;;6232439;23;20361;-72
2023/08/12 10:57:49;;;;;;;2.20;2.00;;;24.70;99.90;;;;;;6233572;23;20419;-68
2023/08/12 11:00:22;;;;;;;2.40;2.20;;;24.60;99.90;;;;;;6207645;23;20412;-71
2023/08/12 11:02:57;;;;;;;2.37;1.83;;;24.60;99.90;;;;;;6210991;23;20369;-72
2023/08/12 11:05:24;;;;;;;2.60;2.20;;;24.40;99.90;;;;;;6188508;23;20416;-73
2023/08/12 11:07:58;;;;;;;2.50;1.90;;;24.50;99.90;;;;;;6183939;23;20442;-72
2023/08/12 11:10:26;;;;;;;3.03;2.73;;;24.40;99.90;;;;;;6184532;23;20385;-70
2023/08/12 11:12:56;;;;;;;2.17;1.90;;;24.30;99.90;;;;;;6212797;23;20376;-72
2023/08/12 11:15:41;;;;;;;3.00;2.27;;;24.30;99.90;;;;;;6237931;23;20357;-73
2023/08/12 11:18:13;;;;;;;2.37;2.17;;;24.20;99.90;;;;;;6187632;23;20436;-70
2023/08/12 11:20:40;;;;;;;3.23;2.17;;;24.10;99.90;;;;;;6234097;23;20385;-72
2023/08/12 11:23:07;;;;;;;2.40;1.80;;;24.10;99.90;;;;;;6209319;23;20360;-70
2023/08/12 11:25:37;;;;;;;2.47;2.27;;;24.20;99.90;;;;;;6236374;23;20349;-72
2023/08/12 11:28:04;;;;;;;2.70;1.83;;;24.40;99.90;;;;;;6210818;23;20391;-69
2023/08/12 11:30:30;;;;;;;3.33;1.73;;;24.70;99.90;;;;;;6234450;23;20404;-69
2023/08/12 11:32:59;;;;;;;2.07;1.87;;;25.10;99.90;;;;;;6187272;23;20419;-71
2023/08/12 11:35:25;;;;;;;2.30;2.10;;;25.40;99.90;;;;;;6188352;23;20381;-72
2023/08/12 11:37:53;;;;;;;3.80;2.30;;;25.70;99.90;;;;;;6186548;23;20404;-72
2023/08/12 11:40:21;;;;;;;2.80;2.60;;;25.90;99.90;;;;;;6234987;23;20396;-71
2023/08/12 11:42:49;;;;;;;2.70;2.50;;;25.90;99.90;;;;;;6186896;23;20373;-69
2023/08/12 11:45:23;;;;;;;2.40;1.90;;;25.80;99.90;;;;;;6233628;23;20394;-71
2023/08/12 11:47:52;;;;;;;3.13;2.20;;;25.70;99.90;;;;;;6181843;23;20428;-74
2023/08/12 11:50:21;;;;;;;2.60;2.37;;;25.60;99.90;;;;;;6209136;23;20440;-73
2023/08/12 11:52:50;;;;;;;5.30;2.10;;;25.60;99.90;;;;;;6237126;23;20762;-70
2023/08/12 11:55:21;;;;;;;2.17;1.97;;;25.60;99.90;;;;;;6211407;23;20366;-72
2023/08/12 11:57:50;;;;;;;2.10;1.90;;;25.60;99.90;;;;;;6235882;23;20361;-73
2023/08/12 12:00:18;;;;;;;2.70;1.97;;;25.70;99.90;;;;;;6211425;23;20393;-73
2023/08/12 12:02:53;;;;;;;2.13;1.87;;;25.70;99.90;;;;;;6188046;23;20342;-72
2023/08/12 12:05:22;;;;;;;1.77;1.67;;;25.80;99.90;;;;;;6187547;23;20389;-72
2023/08/12 12:07:50;;;;;;;1.87;1.70;;;25.90;99.90;;;;;;6239767;23;20393;-73
2023/08/12 12:10:27;;;;;;;1.90;1.57;;;25.90;99.90;;;;;;6240990;23;20400;-72
2023/08/12 12:12:54;;;;;;;2.43;2.20;;;26.00;99.90;;;;;;6213101;23;20407;-73
2023/08/12 12:15:20;;;;;;;3.00;1.83;;;26.30;99.90;;;;;;6240113;23;20410;-73
2023/08/12 12:17:47;;;;;;;2.40;2.20;;;26.50;99.90;;;;;;6185712;23;20383;-71
2023/08/12 12:20:15;;;;;;;2.90;2.20;;;26.90;99.90;;;;;;6188743;23;20409;-73
2023/08/12 12:22:46;;;;;;;2.63;2.10;;;27.10;99.90;;;;;;6189158;23;20373;-74
2023/08/12 12:25:16;;;;;;;2.93;2.53;;;27.30;99.90;;;;;;6188569;23;20391;-74
2023/08/12 12:27:42;;;;;;;2.20;2.00;;;27.20;99.90;;;;;;6213381;23;20373;-73
2023/08/12 12:30:10;;;;;;;3.93;2.50;;;26.90;99.90;;;;;;6159732;23;20459;-70
2023/08/12 12:32:36;;;;;;;3.07;2.77;;;26.70;99.90;;;;;;6235347;23;20361;-73
2023/08/12 12:35:07;;;;;;;5.93;1.90;;;26.50;99.90;;;;;;6209197;23;20392;-72
2023/08/12 12:37:33;;;;;;;2.83;1.80;;;26.20;99.90;;;;;;6211084;23;20472;-72
2023/08/12 12:40:00;;;;;;;3.10;2.03;;;25.80;99.90;;;;;;6209081;23;20413;-72
2023/08/12 12:42:26;;;;;;;2.20;1.77;;;25.80;99.90;;;;;;6212154;23;20357;-73
2023/08/12 12:44:52;;;;;;;8.10;3.30;;;25.80;99.90;;;;;;6213330;23;20399;-73